createdAt,value
2023-01-01T00:12:47.542Z,5.32
2023-01-01T00:32:47.498Z,5.54
2023-01-01T00:52:47.512Z,5.37
2023-01-01T01:12:47.452Z,5.46
2023-01-01T01:32:47.595Z,5.61
2023-01-01T01:52:47.492Z,5.58
2023-01-01T02:12:47.490Z,5.28
2023-01-01T02:32:47.432Z,5.04
2023-01-01T02:52:47.425Z,4.86
2023-01-01T03:12:47.618Z,4.80
2023-01-01T03:32:47.476Z,4.59
2023-01-01T03:52:47.473Z,4.53
2023-01-01T04:12:47.387Z,4.48
2023-01-01T04:32:47.486Z,4.12
2023-01-01T04:52:47.482Z,4.04
2023-01-01T05:12:47.390Z,3.91
2023-01-01T05:32:47.493Z,3.95
2023-01-01T05:52:47.468Z,3.79
2023-01-01T06:12:47.441Z,3.62
2023-01-01T06:32:47.579Z,3.34
2023-01-01T06:52:47.470Z,3.38
2023-01-01T07:12:47.396Z,3.34
2023-01-01T07:32:47.486Z,3.37
2023-01-01T07:52:47.440Z,3.39
2023-01-01T08:12:47.441Z,3.81
2023-01-01T08:32:47.455Z,4.14
2023-01-01T08:52:47.500Z,4.46
2023-01-01T09:12:47.518Z,4.95
2023-01-01T09:32:47.399Z,5.07
2023-01-01T09:52:47.437Z,5.40
2023-01-01T10:12:47.467Z,5.84
2023-01-01T10:32:47.528Z,6.73
2023-01-01T10:52:47.548Z,10.34
2023-01-01T11:12:47.347Z,9.70
2023-01-01T11:32:47.361Z,11.31
2023-01-01T11:52:47.384Z,12.47
2023-01-01T12:12:47.376Z,11.83
2023-01-01T12:32:47.336Z,12.29
2023-01-01T12:52:47.482Z,12.88
2023-01-01T13:12:47.329Z,12.51
2023-01-01T13:32:47.362Z,13.48
2023-01-01T13:52:47.370Z,15.85
2023-01-01T14:12:47.185Z,14.26
2023-01-01T14:32:47.267Z,12.74
2023-01-01T14:52:47.250Z,11.53
2023-01-01T15:12:47.187Z,10.34
2023-01-01T15:32:47.190Z,9.34
2023-01-01T15:52:47.188Z,8.50
2023-01-01T16:12:47.148Z,7.59
2023-01-01T16:32:47.176Z,7.31
2023-01-01T16:52:47.224Z,6.89
2023-01-01T17:12:47.201Z,6.32
2023-01-01T17:32:47.064Z,6.23
2023-01-01T17:52:47.097Z,6.41
2023-01-01T18:12:47.234Z,6.38
2023-01-01T18:32:47.256Z,6.24
2023-01-01T18:52:47.193Z,6.05
2023-01-01T19:12:47.213Z,5.67
2023-01-01T19:32:47.108Z,5.30
2023-01-01T19:52:47.098Z,5.23
2023-01-01T20:12:47.198Z,5.10
2023-01-01T20:32:47.018Z,4.99
2023-01-01T20:52:47.253Z,4.71
2023-01-01T21:12:47.126Z,4.54
2023-01-01T21:32:47.067Z,4.42
2023-01-01T21:52:47.078Z,4.38
2023-01-01T22:12:47.095Z,4.25
2023-01-01T22:32:47.016Z,4.08
2023-01-01T22:52:47.046Z,4.07
2023-01-01T23:12:47.037Z,3.81
2023-01-01T23:32:47.056Z,3.72
2023-01-01T23:52:47.071Z,3.35
